Terminal Aerodrome Forecast
Issued by NWS

Home | Current Version | Previous Version | Text Only | Print | Product List | Glossary On
Versions: 1 2 3 4 5 6 7 8 9 10 11 12 13
466
FTPA31 PHFO 091141
TAFHMK
TAF
PHMK 091141Z 0912/1012 VRB04KT P6SM -RA SCT006 BKN015 OVC100
      TEMPO 0912/0916 4SM RA BR BKN006
     FM091900 16009KT P6SM VCSH SCT020 BKN040
     FM100500 VRB05KT P6SM VCSH SCT025 BKN045=

USA.gov is the U.S. government's official web portal to all federal, state and local government web resources and services.